Aeroporto :
LOGIN :

Iscrizione | Disclaimer

   EN    FR    IT 

 










Sommario :    VFR   VFR Marginale   IFR   IFR Intensivo   IFR Molto Intensivo
Visibilità : 
Base nubi : 
>= 8 km
>= 3000ft
5 / 8 km
1000 / 3000 ft
1500m / 5 km
500 / 1000 ft
800 / 1500m
200 / 500 ft
< 800m
< 200 ft
Simboli :   Temporali  Nebbia  Neve Forte  Precipitazioni Forti  Vento > 20 kt
SIGMETs :   Varie  Temporali  Ghiacco  Turbolenza  Onda orograficha  Ceneri Vulcaniche






- Altitudine del aeroporto : 117 ft
- Codice IATA : NWI


EGSH - Norwich

ULTIMO METAR :
  • 251720Z AUTO 28008KT 240V310 9999 NCD 24/05 Q1033 NOSIG

METARs OBSOLETI :
  • 251650Z 29007KT 230V330 CAVOK 24/05 Q1033
  • 251620Z 24007KT 160V300 CAVOK 24/07 Q1033 NOSIG
  • 251550Z 27007KT 230V320 CAVOK 24/07 Q1033
  • 251520Z 27006KT 190V350 CAVOK 24/06 Q1033

TAF TAF EGSH
Valido dal 25 a 15 ore il 26 a 00 ore UTC


251356Z 2515/2524 26006KT 9999 FEW045
PROB30
TEMPO 2515/2519 12010KT
ATIS : +44 1603 420 640



MetMap, La meteo Aeronautica in un colpo d'occhio ! - Copyright ORBIFLY Dicembre 2007 - Disclaimer

ORBIFLY MET'MAP TEAM :

Programmazione e sviluppo : Alexandra Zaïnal
Concezione : Baudouin d'Aumeries
Aiuto per la programmazione : Marc-Olivier Méhu
Supporto tecnico e logistico : Manuel Goepfert
Aiuto per la traduzione : Arnaldo La Scala

Contatto : metmap@orbifly.com




FONTI E CREDITI :

   NOAA